createdAt,value
2022-08-16T00:00:04.632Z,15.58
2022-08-16T00:01:06.850Z,15.59
2022-08-16T00:02:12.895Z,15.56
2022-08-16T00:03:16.049Z,15.52
2022-08-16T00:04:18.972Z,15.57
2022-08-16T00:05:24.290Z,15.55
2022-08-16T00:06:25.925Z,15.51
2022-08-16T00:07:28.950Z,15.51
2022-08-16T00:08:36.751Z,15.51
2022-08-16T00:09:38.966Z,15.47
2022-08-16T00:10:43.571Z,15.50
2022-08-16T00:11:46.404Z,15.56
2022-08-16T00:12:48.573Z,15.51
2022-08-16T00:13:53.630Z,15.52
2022-08-16T00:14:59.851Z,15.48
2022-08-16T00:16:01.765Z,15.53
2022-08-16T00:17:23.365Z,15.56
2022-08-16T00:18:29.748Z,15.50
2022-08-16T00:19:41.661Z,15.53
2022-08-16T00:20:47.019Z,15.44
2022-08-16T00:21:53.368Z,15.49
2022-08-16T00:22:57.894Z,15.56
2022-08-16T00:24:00.481Z,15.59
2022-08-16T00:25:08.442Z,15.58
2022-08-16T00:26:35.262Z,15.63
2022-08-16T00:27:34.122Z,15.55
2022-08-16T00:28:35.648Z,15.50
2022-08-16T00:29:38.121Z,15.34
2022-08-16T00:30:41.049Z,15.30
2022-08-16T00:31:59.334Z,15.21
2022-08-16T00:33:03.674Z,15.10
2022-08-16T00:34:06.483Z,15.09
2022-08-16T00:35:13.293Z,15.04
2022-08-16T00:36:16.965Z,15.16
2022-08-16T00:37:20.558Z,15.19
2022-08-16T00:38:41.193Z,15.05
2022-08-16T00:39:43.939Z,15.09
2022-08-16T00:40:53.517Z,15.11
2022-08-16T00:41:56.079Z,15.02
2022-08-16T00:42:57.740Z,15.16
2022-08-16T00:44:03.600Z,15.12
2022-08-16T00:45:12.117Z,15.10
2022-08-16T00:46:22.340Z,15.10
2022-08-16T00:47:39.263Z,15.17
2022-08-16T00:48:44.276Z,15.23
2022-08-16T00:49:56.655Z,15.22
2022-08-16T00:50:58.915Z,15.25
2022-08-16T00:52:01.350Z,15.20
2022-08-16T00:53:04.284Z,15.22
2022-08-16T00:54:05.912Z,15.26
2022-08-16T00:55:08.585Z,15.21
2022-08-16T00:56:55.463Z,15.16
2022-08-16T00:57:59.030Z,15.20
2022-08-16T00:59:00.582Z,15.27
2022-08-16T01:00:05.629Z,15.22
2022-08-16T01:01:08.844Z,15.27
2022-08-16T01:02:30.358Z,15.29
2022-08-16T01:03:35.096Z,15.33
2022-08-16T01:04:37.810Z,15.30
2022-08-16T01:05:40.842Z,15.28
2022-08-16T01:07:01.238Z,15.25
2022-08-16T01:08:36.060Z,15.33
2022-08-16T01:09:27.437Z,15.31
2022-08-16T01:10:38.052Z,15.25
2022-08-16T01:11:54.185Z,15.31
2022-08-16T01:12:57.223Z,15.30
2022-08-16T01:14:10.925Z,15.29
2022-08-16T01:15:12.550Z,15.25
2022-08-16T01:16:20.010Z,15.24
2022-08-16T01:17:24.356Z,15.27
2022-08-16T01:18:40.521Z,15.35
2022-08-16T01:19:47.505Z,15.35
2022-08-16T01:20:57.263Z,15.29
2022-08-16T01:22:48.591Z,15.39
2022-08-16T01:23:58.019Z,15.40
2022-08-16T01:24:58.523Z,15.42
2022-08-16T01:26:34.243Z,15.40
2022-08-16T01:27:26.846Z,15.43
2022-08-16T01:28:30.553Z,15.41
2022-08-16T01:29:58.531Z,15.44
2022-08-16T01:31:02.569Z,15.38
2022-08-16T01:32:04.752Z,15.40
2022-08-16T01:33:14.661Z,15.43
2022-08-16T01:34:23.445Z,15.41
2022-08-16T01:35:35.349Z,15.42
2022-08-16T01:36:37.860Z,15.44
2022-08-16T01:37:42.384Z,15.38
2022-08-16T01:38:51.265Z,15.38
2022-08-16T01:39:59.854Z,15.25
2022-08-16T01:41:04.170Z,15.11
2022-08-16T01:42:12.148Z,15.11
2022-08-16T01:43:14.688Z,14.95
2022-08-16T01:44:18.578Z,14.81
2022-08-16T01:45:21.055Z,14.89
2022-08-16T01:46:29.704Z,14.79
2022-08-16T01:47:34.585Z,14.85
2022-08-16T01:48:36.497Z,14.81
2022-08-16T01:49:45.403Z,14.77
2022-08-16T01:51:09.080Z,14.85
2022-08-16T01:52:28.166Z,14.74
2022-08-16T01:53:32.041Z,14.77
2022-08-16T01:54:37.463Z,14.88
2022-08-16T01:55:40.828Z,14.80
2022-08-16T01:56:42.934Z,14.71
2022-08-16T01:57:53.231Z,14.70
2022-08-16T01:58:57.872Z,14.80
2022-08-16T01:59:59.671Z,14.75
2022-08-16T02:01:01.361Z,14.66
2022-08-16T02:02:04.161Z,14.68
2022-08-16T02:03:26.557Z,14.72
2022-08-16T02:04:49.000Z,14.68
2022-08-16T02:05:52.372Z,14.72
2022-08-16T02:06:53.999Z,14.81
2022-08-16T02:07:55.917Z,14.83
2022-08-16T02:08:57.496Z,14.73
2022-08-16T02:09:59.739Z,14.83
2022-08-16T02:11:07.198Z,14.87
2022-08-16T02:12:49.855Z,14.90
2022-08-16T02:13:32.778Z,14.86
2022-08-16T02:14:35.670Z,14.76
2022-08-16T02:15:43.745Z,14.82
2022-08-16T02:16:45.599Z,14.84
2022-08-16T02:17:47.125Z,14.79
2022-08-16T02:18:54.119Z,14.77
2022-08-16T02:19:59.286Z,14.83
2022-08-16T02:21:03.048Z,14.81
2022-08-16T02:22:34.251Z,14.79
2022-08-16T02:23:29.832Z,14.86
2022-08-16T02:24:41.342Z,14.75
2022-08-16T02:25:52.333Z,14.80
2022-08-16T02:26:56.748Z,14.74
2022-08-16T02:27:59.343Z,14.69
2022-08-16T02:29:01.997Z,14.69
2022-08-16T02:30:06.964Z,14.64
2022-08-16T02:31:12.610Z,14.72
2022-08-16T02:32:50.169Z,14.67
2022-08-16T02:33:43.692Z,14.58
2022-08-16T02:34:50.534Z,14.61
2022-08-16T02:35:55.169Z,14.62
2022-08-16T02:37:00.017Z,14.52
2022-08-16T02:38:08.986Z,14.53
2022-08-16T02:39:14.893Z,14.50
2022-08-16T02:40:17.739Z,14.54
2022-08-16T02:41:19.640Z,14.60
2022-08-16T02:42:22.893Z,14.56
2022-08-16T02:43:26.758Z,14.58
2022-08-16T02:44:29.936Z,14.55
2022-08-16T02:45:31.581Z,14.57
2022-08-16T02:46:33.787Z,14.54
2022-08-16T02:48:01.744Z,14.59
2022-08-16T02:48:56.848Z,14.68
2022-08-16T02:50:52.535Z,14.62
2022-08-16T02:51:23.591Z,14.67
2022-08-16T02:52:29.488Z,14.62
2022-08-16T02:53:31.764Z,14.60
2022-08-16T02:54:33.314Z,14.68
2022-08-16T02:55:41.439Z,14.68
2022-08-16T02:56:43.255Z,14.61
2022-08-16T02:57:54.361Z,14.61
2022-08-16T02:58:56.669Z,14.60
2022-08-16T02:59:58.269Z,14.59
2022-08-16T03:01:00.978Z,14.61
2022-08-16T03:02:02.589Z,14.61
2022-08-16T03:03:10.730Z,14.62
2022-08-16T03:04:39.498Z,14.64
2022-08-16T03:05:33.943Z,14.61
2022-08-16T03:06:38.854Z,14.60
2022-08-16T03:07:44.047Z,14.63
2022-08-16T03:08:53.263Z,14.63
2022-08-16T03:09:54.940Z,14.57
2022-08-16T03:10:59.239Z,14.64
2022-08-16T03:12:02.542Z,14.69
2022-08-16T03:13:12.597Z,14.59
2022-08-16T03:14:14.364Z,14.67
2022-08-16T03:15:23.094Z,14.52
2022-08-16T03:16:36.653Z,14.67
2022-08-16T03:17:53.090Z,14.58
2022-08-16T03:18:55.690Z,14.60
2022-08-16T03:20:00.267Z,14.68
2022-08-16T03:21:04.792Z,14.73
2022-08-16T03:22:06.903Z,14.74
2022-08-16T03:23:09.213Z,14.70
2022-08-16T03:24:28.638Z,14.71
2022-08-16T03:25:40.751Z,14.74
2022-08-16T03:26:45.958Z,14.68
2022-08-16T03:27:47.749Z,14.72
2022-08-16T03:28:52.862Z,14.67
2022-08-16T03:29:55.025Z,14.72
2022-08-16T03:30:56.599Z,14.70
2022-08-16T03:31:59.443Z,14.70
2022-08-16T03:33:01.265Z,14.69
2022-08-16T03:34:02.787Z,14.68
2022-08-16T03:35:05.510Z,14.65
2022-08-16T03:36:30.273Z,14.70
2022-08-16T03:37:29.103Z,14.70
2022-08-16T03:38:34.267Z,14.73
2022-08-16T03:39:36.317Z,14.70
2022-08-16T03:40:45.031Z,14.66
2022-08-16T03:41:50.241Z,14.64
2022-08-16T03:43:00.577Z,14.70
2022-08-16T03:44:44.017Z,14.70
2022-08-16T03:45:37.655Z,14.61
2022-08-16T03:46:48.142Z,14.53
2022-08-16T03:47:58.510Z,14.62
2022-08-16T03:49:01.552Z,14.68
2022-08-16T03:50:25.732Z,14.62
2022-08-16T03:51:27.065Z,14.53
2022-08-16T03:52:31.618Z,14.60
2022-08-16T03:53:38.068Z,14.52
2022-08-16T03:54:53.323Z,14.48
2022-08-16T03:55:58.954Z,14.45
2022-08-16T03:57:00.439Z,14.51
2022-08-16T03:58:01.941Z,14.53
2022-08-16T03:59:04.196Z,14.54
2022-08-16T04:00:10.027Z,14.58
2022-08-16T04:01:12.216Z,14.58
2022-08-16T04:02:21.999Z,14.56
2022-08-16T04:03:24.442Z,14.62
2022-08-16T04:04:33.268Z,14.51
2022-08-16T04:05:37.693Z,14.52
2022-08-16T04:06:39.229Z,14.61
2022-08-16T04:07:40.701Z,14.61
2022-08-16T04:08:42.407Z,14.62
2022-08-16T04:09:46.667Z,14.58
2022-08-16T04:10:48.683Z,14.63
2022-08-16T04:11:53.262Z,14.60
2022-08-16T04:13:04.266Z,14.58
2022-08-16T04:14:30.897Z,14.59
2022-08-16T04:15:28.947Z,14.56
2022-08-16T04:16:30.773Z,14.59
2022-08-16T04:17:32.287Z,14.54
2022-08-16T04:18:36.541Z,14.54
2022-08-16T04:19:38.465Z,14.61
2022-08-16T04:20:46.959Z,14.56
2022-08-16T04:21:48.481Z,14.50
2022-08-16T04:22:49.960Z,14.52
2022-08-16T04:23:51.471Z,14.54
2022-08-16T04:24:59.258Z,14.59
2022-08-16T04:26:02.045Z,14.57
2022-08-16T04:27:04.483Z,14.52
2022-08-16T04:28:54.397Z,14.61
2022-08-16T04:29:44.048Z,14.37
2022-08-16T04:30:50.490Z,14.40
2022-08-16T04:31:56.924Z,14.32
2022-08-16T04:33:00.062Z,14.31
2022-08-16T04:34:01.848Z,14.25
2022-08-16T04:35:09.312Z,14.28
2022-08-16T04:36:19.720Z,14.30
2022-08-16T04:37:21.905Z,14.45
2022-08-16T04:38:23.761Z,14.47
2022-08-16T04:39:45.927Z,14.47
2022-08-16T04:40:48.533Z,14.44
2022-08-16T04:41:56.680Z,14.53
2022-08-16T04:42:59.269Z,14.37
2022-08-16T04:44:00.815Z,14.47
2022-08-16T04:45:02.592Z,14.55
2022-08-16T04:46:05.878Z,14.58
2022-08-16T04:47:31.366Z,14.51
2022-08-16T04:48:34.089Z,14.39
2022-08-16T04:49:43.573Z,14.40
2022-08-16T04:50:48.313Z,14.35
2022-08-16T04:51:53.738Z,14.29
2022-08-16T04:52:56.854Z,14.35
2022-08-16T04:54:00.563Z,14.33
2022-08-16T04:55:05.646Z,14.37
2022-08-16T04:56:11.340Z,14.40
2022-08-16T04:57:13.456Z,14.36
2022-08-16T04:58:41.357Z,14.41
2022-08-16T04:59:36.374Z,14.41
2022-08-16T05:00:37.945Z,14.44
2022-08-16T05:01:56.109Z,14.52
2022-08-16T05:03:03.037Z,14.50
2022-08-16T05:04:19.732Z,14.57
2022-08-16T05:05:22.415Z,14.57
2022-08-16T05:06:42.427Z,14.52
2022-08-16T05:07:58.560Z,14.59
2022-08-16T05:09:01.631Z,14.53
2022-08-16T05:10:20.108Z,14.45
2022-08-16T05:11:24.643Z,14.57
2022-08-16T05:12:33.983Z,14.64
2022-08-16T05:13:42.645Z,14.63
2022-08-16T05:14:46.385Z,14.70
2022-08-16T05:16:04.781Z,14.75
2022-08-16T05:17:08.972Z,14.70
2022-08-16T05:18:16.140Z,14.80
2022-08-16T05:19:18.179Z,14.80
2022-08-16T05:20:39.607Z,14.92
2022-08-16T05:21:41.927Z,14.93
2022-08-16T05:22:44.517Z,15.07
2022-08-16T05:23:55.998Z,15.01
2022-08-16T05:25:01.892Z,15.11
2022-08-16T05:26:19.962Z,15.18
2022-08-16T05:27:21.982Z,15.24
2022-08-16T05:28:23.433Z,15.18
2022-08-16T05:29:57.373Z,15.23
2022-08-16T05:31:00.414Z,15.18
2022-08-16T05:32:02.377Z,15.39
2022-08-16T05:33:05.620Z,15.20
2022-08-16T05:34:19.846Z,15.41
2022-08-16T05:35:21.776Z,15.52
2022-08-16T05:36:33.901Z,15.41
2022-08-16T05:37:40.425Z,15.52
2022-08-16T05:38:41.937Z,15.42
2022-08-16T05:39:43.470Z,15.51
2022-08-16T05:41:00.056Z,15.57
2022-08-16T05:42:01.963Z,15.39
2022-08-16T05:43:04.824Z,15.39
2022-08-16T05:44:23.777Z,15.44
2022-08-16T05:45:26.269Z,15.32
2022-08-16T05:46:29.580Z,15.30
2022-08-16T05:47:32.579Z,15.40
2022-08-16T05:48:54.741Z,15.46
2022-08-16T05:49:56.830Z,15.44
2022-08-16T05:50:58.741Z,15.50
2022-08-16T05:52:00.952Z,15.56
2022-08-16T05:53:02.430Z,15.61
2022-08-16T05:54:04.318Z,15.51
2022-08-16T05:55:06.913Z,15.55
2022-08-16T05:56:10.790Z,15.61
2022-08-16T05:57:21.110Z,15.47
2022-08-16T05:58:32.957Z,15.73
2022-08-16T05:59:35.053Z,15.73
2022-08-16T06:00:38.372Z,15.83
2022-08-16T06:01:40.628Z,15.77
2022-08-16T06:02:42.479Z,15.80
2022-08-16T06:03:45.681Z,15.80
2022-08-16T06:04:49.401Z,15.81
2022-08-16T06:05:50.901Z,15.83
2022-08-16T06:06:55.964Z,15.85
2022-08-16T06:07:59.225Z,15.79
2022-08-16T06:09:00.842Z,15.96
2022-08-16T06:10:03.857Z,16.07
2022-08-16T06:11:10.534Z,16.26
2022-08-16T06:12:26.428Z,16.37
2022-08-16T06:13:32.604Z,16.32
2022-08-16T06:14:34.459Z,16.59
2022-08-16T06:15:37.766Z,16.70
2022-08-16T06:16:43.106Z,16.69
2022-08-16T06:17:46.073Z,16.81
2022-08-16T06:18:48.952Z,16.88
2022-08-16T06:19:52.095Z,16.96
2022-08-16T06:20:55.923Z,17.09
2022-08-16T06:21:57.693Z,17.15
2022-08-16T06:23:04.031Z,17.24
2022-08-16T06:24:53.476Z,17.37
2022-08-16T06:25:36.474Z,17.47
2022-08-16T06:26:46.016Z,17.63
2022-08-16T06:28:00.126Z,17.69
2022-08-16T06:29:03.105Z,17.78
2022-08-16T06:30:06.414Z,17.84
2022-08-16T06:31:12.208Z,17.98
2022-08-16T06:32:27.299Z,17.76
2022-08-16T06:33:29.593Z,17.99
2022-08-16T06:34:56.499Z,18.03
2022-08-16T06:36:04.305Z,18.25
2022-08-16T06:37:09.941Z,18.18
2022-08-16T06:38:32.866Z,18.40
2022-08-16T06:39:34.344Z,18.38
2022-08-16T06:40:36.062Z,18.49
2022-08-16T06:41:39.588Z,18.64
2022-08-16T06:42:53.916Z,18.68
2022-08-16T06:43:58.714Z,18.48
2022-08-16T06:45:00.244Z,18.53
2022-08-16T06:46:04.230Z,18.72
2022-08-16T06:47:06.337Z,18.70
2022-08-16T06:48:09.561Z,18.69
2022-08-16T06:49:12.703Z,18.66
2022-08-16T06:50:22.123Z,18.82
2022-08-16T06:51:45.998Z,18.79
2022-08-16T06:52:57.566Z,18.70
2022-08-16T06:54:00.515Z,18.70
2022-08-16T06:55:04.828Z,18.80
2022-08-16T06:56:14.426Z,19.08
2022-08-16T06:57:24.680Z,18.90
2022-08-16T06:58:31.339Z,18.84
2022-08-16T06:59:52.505Z,19.15
2022-08-16T07:00:54.683Z,19.34
2022-08-16T07:01:59.627Z,19.31
2022-08-16T07:03:02.524Z,19.50
2022-08-16T07:04:32.473Z,19.50
2022-08-16T07:05:42.073Z,19.48
2022-08-16T07:06:45.016Z,19.34
2022-08-16T07:07:50.842Z,19.58
2022-08-16T07:08:52.636Z,19.40
2022-08-16T07:09:54.102Z,19.60
2022-08-16T07:10:55.791Z,19.65
2022-08-16T07:12:03.777Z,19.54
2022-08-16T07:13:11.624Z,19.66
2022-08-16T07:14:25.827Z,19.71
2022-08-16T07:15:28.451Z,19.76
2022-08-16T07:16:30.216Z,19.57
2022-08-16T07:17:33.263Z,19.80
2022-08-16T07:18:36.592Z,19.89
2022-08-16T07:20:02.707Z,19.97
2022-08-16T07:21:02.165Z,19.92
2022-08-16T07:22:04.032Z,19.87
2022-08-16T07:23:06.296Z,19.76
2022-08-16T07:24:30.428Z,19.91
2022-08-16T07:25:33.408Z,19.67
2022-08-16T07:26:41.895Z,19.41
2022-08-16T07:27:50.904Z,19.69
2022-08-16T07:28:52.765Z,19.61
2022-08-16T07:29:55.630Z,19.76
2022-08-16T07:30:57.884Z,19.59
2022-08-16T07:32:00.712Z,19.69
2022-08-16T07:33:03.409Z,20.15
2022-08-16T07:34:05.800Z,20.28
2022-08-16T07:35:11.835Z,20.58
2022-08-16T07:36:21.895Z,20.64
2022-08-16T07:37:24.195Z,20.50
2022-08-16T07:38:33.788Z,20.13
2022-08-16T07:39:35.860Z,20.64
2022-08-16T07:41:00.245Z,20.56
2022-08-16T07:42:03.461Z,20.53
2022-08-16T07:43:08.599Z,20.90
2022-08-16T07:44:16.737Z,21.04
2022-08-16T07:45:19.369Z,20.74
2022-08-16T07:46:39.590Z,20.71
2022-08-16T07:47:43.791Z,20.84
2022-08-16T07:48:45.264Z,20.83
2022-08-16T07:49:52.739Z,21.05
2022-08-16T07:51:01.673Z,21.25
2022-08-16T07:52:20.552Z,20.99
2022-08-16T07:53:22.456Z,21.12
2022-08-16T07:54:32.277Z,21.15
2022-08-16T07:55:48.109Z,20.97
2022-08-16T07:56:49.834Z,21.26
2022-08-16T07:57:59.790Z,21.04
2022-08-16T07:59:02.878Z,21.23
2022-08-16T08:00:06.128Z,21.38
2022-08-16T08:01:21.057Z,21.49
2022-08-16T08:02:27.423Z,21.02
2022-08-16T08:03:35.990Z,21.10
2022-08-16T08:04:41.558Z,20.94
2022-08-16T08:05:43.830Z,21.04
2022-08-16T08:06:45.736Z,21.17
2022-08-16T08:07:54.194Z,21.69
2022-08-16T08:09:00.343Z,21.85
2022-08-16T08:10:02.230Z,21.57
2022-08-16T08:11:08.830Z,21.98
2022-08-16T08:12:32.317Z,21.86
2022-08-16T08:13:42.598Z,22.15
2022-08-16T08:14:44.486Z,21.69
2022-08-16T08:15:52.678Z,21.17
2022-08-16T08:16:54.852Z,21.25
2022-08-16T08:17:56.389Z,21.30
2022-08-16T08:19:17.701Z,21.49
2022-08-16T08:20:26.706Z,20.92
2022-08-16T08:21:59.240Z,20.80
2022-08-16T08:23:00.563Z,21.06
2022-08-16T08:24:03.246Z,20.98
2022-08-16T08:25:13.079Z,20.86
2022-08-16T08:26:18.428Z,21.26
2022-08-16T08:27:23.064Z,21.03
2022-08-16T08:28:25.689Z,21.34
2022-08-16T08:29:37.712Z,21.33
2022-08-16T08:30:51.031Z,21.40
2022-08-16T08:32:03.015Z,21.53
2022-08-16T08:33:24.479Z,21.46
2022-08-16T08:34:29.226Z,21.86
2022-08-16T08:35:31.248Z,22.00
2022-08-16T08:36:34.972Z,21.70
2022-08-16T08:37:54.044Z,21.78
2022-08-16T08:38:57.935Z,21.76
2022-08-16T08:40:00.651Z,21.69
2022-08-16T08:41:02.645Z,21.80
2022-08-16T08:42:04.949Z,22.39
2022-08-16T08:43:12.030Z,22.05
2022-08-16T08:44:28.027Z,22.32
2022-08-16T08:45:48.277Z,22.02
2022-08-16T08:46:59.981Z,22.34
2022-08-16T08:48:02.077Z,22.38
2022-08-16T08:49:07.437Z,22.26
2022-08-16T08:50:10.874Z,22.27
2022-08-16T08:51:13.656Z,21.93
2022-08-16T08:52:34.110Z,22.36
2022-08-16T08:53:37.980Z,22.46
2022-08-16T08:54:41.291Z,22.54
2022-08-16T08:55:43.190Z,22.43
2022-08-16T08:56:45.709Z,22.42
2022-08-16T08:57:47.830Z,22.33
2022-08-16T08:58:54.669Z,22.43
2022-08-16T09:00:00.418Z,22.23
2022-08-16T09:01:04.334Z,22.24
2022-08-16T09:02:06.289Z,22.51
2022-08-16T09:03:07.988Z,22.61
2022-08-16T09:04:14.911Z,23.17
2022-08-16T09:05:22.402Z,23.44
2022-08-16T09:06:23.972Z,23.67
2022-08-16T09:07:28.053Z,23.86
2022-08-16T09:08:29.654Z,24.08
2022-08-16T09:09:37.751Z,24.01
2022-08-16T09:10:43.826Z,23.64
2022-08-16T09:11:53.846Z,24.16
2022-08-16T09:13:05.855Z,23.97
2022-08-16T09:14:24.673Z,24.07
2022-08-16T09:15:33.093Z,24.17
2022-08-16T09:17:01.445Z,24.55
2022-08-16T09:17:56.457Z,24.59
2022-08-16T09:19:02.069Z,24.01
2022-08-16T09:20:07.320Z,24.23
2022-08-16T09:21:09.541Z,23.80
2022-08-16T09:22:19.837Z,24.29
2022-08-16T09:23:23.422Z,24.47
2022-08-16T09:24:46.862Z,24.37
2022-08-16T09:25:48.783Z,23.73
2022-08-16T09:26:52.516Z,23.35
2022-08-16T09:27:57.896Z,23.16
2022-08-16T09:29:15.438Z,22.91
2022-08-16T09:30:34.042Z,22.90
2022-08-16T09:31:41.095Z,23.65
2022-08-16T09:32:43.543Z,24.09
2022-08-16T09:33:52.124Z,24.33
2022-08-16T09:34:53.760Z,24.08
2022-08-16T09:36:00.056Z,23.95
2022-08-16T09:37:01.614Z,24.19
2022-08-16T09:38:03.535Z,24.45
2022-08-16T09:39:05.030Z,24.47
2022-08-16T09:40:32.171Z,23.86
2022-08-16T09:41:31.553Z,24.16
2022-08-16T09:42:51.366Z,24.34
2022-08-16T09:44:00.346Z,24.48
2022-08-16T09:45:11.503Z,24.67
2022-08-16T09:46:44.640Z,24.94
2022-08-16T09:47:56.329Z,24.46
2022-08-16T09:48:59.142Z,24.55
2022-08-16T09:50:11.756Z,24.83
2022-08-16T09:51:13.999Z,24.75
2022-08-16T09:52:15.811Z,24.73
2022-08-16T09:53:21.971Z,24.80
2022-08-16T09:54:25.020Z,24.23
2022-08-16T09:55:34.321Z,23.76
2022-08-16T09:56:52.673Z,23.86
2022-08-16T09:57:55.219Z,23.98
2022-08-16T09:59:04.977Z,24.59
2022-08-16T10:00:44.729Z,24.47
2022-08-16T10:01:33.528Z,24.27
2022-08-16T10:02:35.054Z,24.68
2022-08-16T10:04:02.436Z,24.73
2022-08-16T10:05:06.331Z,24.58
2022-08-16T10:06:08.044Z,24.61
2022-08-16T10:07:14.962Z,24.58
2022-08-16T10:08:25.755Z,24.78
2022-08-16T10:09:44.868Z,25.09
2022-08-16T10:10:49.933Z,25.03
2022-08-16T10:11:53.179Z,24.66
2022-08-16T10:12:55.906Z,24.92
2022-08-16T10:13:58.437Z,25.10
2022-08-16T10:14:59.913Z,25.04
2022-08-16T10:16:02.341Z,25.27
2022-08-16T10:17:05.080Z,25.05
2022-08-16T10:19:00.188Z,25.12
2022-08-16T10:19:31.910Z,24.90
2022-08-16T10:20:37.740Z,24.98
2022-08-16T10:21:39.664Z,24.69
2022-08-16T10:22:42.837Z,24.47
2022-08-16T10:23:47.173Z,24.28
2022-08-16T10:24:55.647Z,24.22
2022-08-16T10:27:00.651Z,23.84
2022-08-16T10:27:28.986Z,24.04
2022-08-16T10:28:32.154Z,24.00
2022-08-16T10:29:59.530Z,23.82
2022-08-16T10:31:04.161Z,24.54
2022-08-16T10:32:06.486Z,24.91
2022-08-16T10:33:08.017Z,25.09
2022-08-16T10:34:31.744Z,24.72
2022-08-16T10:35:33.949Z,25.12
2022-08-16T10:36:38.563Z,25.38
2022-08-16T10:37:41.197Z,25.55
2022-08-16T10:38:42.956Z,25.35
2022-08-16T10:39:44.590Z,24.92
2022-08-16T10:40:48.055Z,24.69
2022-08-16T10:41:49.610Z,25.06
2022-08-16T10:42:52.798Z,24.81
2022-08-16T10:43:54.319Z,24.76
2022-08-16T10:44:56.714Z,25.18
2022-08-16T10:46:00.109Z,25.49
2022-08-16T10:47:02.400Z,25.42
2022-08-16T10:48:05.983Z,25.67
2022-08-16T10:49:27.391Z,25.33
2022-08-16T10:50:31.289Z,25.14
2022-08-16T10:51:34.174Z,25.04
2022-08-16T10:52:46.346Z,25.26
2022-08-16T10:53:51.629Z,25.60
2022-08-16T10:55:40.229Z,25.88
2022-08-16T10:56:43.235Z,25.82
2022-08-16T10:57:36.134Z,25.56
2022-08-16T10:58:40.914Z,25.15
2022-08-16T10:59:51.735Z,25.50
2022-08-16T11:00:57.561Z,25.08
2022-08-16T11:06:06.420Z,25.25
2022-08-16T11:07:43.677Z,25.54
2022-08-16T11:08:35.432Z,25.89
2022-08-16T11:09:43.881Z,25.93
2022-08-16T11:11:06.120Z,25.71
2022-08-16T11:12:14.294Z,25.94
2022-08-16T11:15:11.412Z,25.91
2022-08-16T11:17:26.342Z,26.31
2022-08-16T11:18:48.371Z,26.31
2022-08-16T11:21:28.666Z,25.17
2022-08-16T11:22:47.306Z,25.44
2022-08-16T11:23:57.824Z,25.07
2022-08-16T11:26:07.791Z,25.64
2022-08-16T11:26:24.236Z,25.54
2022-08-16T11:27:32.780Z,25.77
2022-08-16T11:29:12.656Z,25.47
2022-08-16T11:29:59.986Z,25.36
2022-08-16T11:31:03.138Z,25.67
2022-08-16T11:32:05.517Z,25.45
2022-08-16T11:33:10.602Z,24.92
2022-08-16T11:34:12.459Z,24.76
2022-08-16T11:35:17.874Z,24.93
2022-08-16T11:36:39.161Z,25.00
2022-08-16T11:38:23.598Z,25.14
2022-08-16T11:39:19.702Z,25.10
2022-08-16T11:40:32.239Z,25.20
2022-08-16T11:41:34.135Z,25.13
2022-08-16T11:42:37.604Z,25.33
2022-08-16T11:43:40.416Z,25.28
2022-08-16T11:44:52.712Z,25.13
2022-08-16T11:46:43.138Z,25.05
2022-08-16T11:47:24.048Z,25.69
2022-08-16T11:48:27.288Z,25.73
2022-08-16T11:49:28.745Z,26.02
2022-08-16T11:50:30.281Z,26.13
2022-08-16T11:51:31.849Z,26.20
2022-08-16T11:52:33.342Z,26.22
2022-08-16T11:53:36.442Z,25.92
2022-08-16T11:54:37.926Z,25.93
2022-08-16T11:55:40.765Z,25.63
2022-08-16T11:56:53.260Z,25.88
2022-08-16T11:57:59.662Z,25.81
2022-08-16T11:59:01.735Z,26.07
2022-08-16T12:00:06.407Z,26.06
2022-08-16T12:01:10.776Z,25.97
2022-08-16T12:02:32.041Z,26.15
2022-08-16T12:03:34.880Z,25.68
2022-08-16T12:04:37.197Z,26.00
2022-08-16T12:05:40.146Z,26.04
2022-08-16T12:06:41.703Z,26.12
2022-08-16T12:07:43.358Z,26.16
2022-08-16T12:08:47.089Z,26.21
2022-08-16T12:09:48.660Z,26.12
2022-08-16T12:10:50.265Z,26.19
2022-08-16T12:11:53.033Z,25.98
2022-08-16T12:12:54.994Z,25.88
2022-08-16T12:13:59.946Z,25.90
2022-08-16T12:15:01.661Z,26.16
2022-08-16T12:16:03.604Z,26.03
2022-08-16T12:17:08.174Z,25.91
2022-08-16T12:18:10.785Z,26.01
2022-08-16T12:19:23.449Z,25.79
2022-08-16T12:20:38.643Z,25.47
2022-08-16T12:21:58.324Z,25.27
2022-08-16T12:23:01.905Z,25.04
2022-08-16T12:24:03.916Z,25.06
2022-08-16T12:25:06.985Z,25.11
2022-08-16T12:26:10.634Z,24.95
2022-08-16T12:27:12.318Z,24.76
2022-08-16T12:28:13.939Z,24.45
2022-08-16T12:29:15.678Z,24.65
2022-08-16T12:30:27.057Z,24.87
2022-08-16T12:31:33.965Z,24.90
2022-08-16T12:32:41.951Z,24.65
2022-08-16T12:33:44.910Z,24.99
2022-08-16T12:34:50.792Z,25.24
2022-08-16T12:35:54.470Z,25.39
2022-08-16T12:36:56.187Z,25.60
2022-08-16T12:37:59.800Z,25.21
2022-08-16T12:39:01.578Z,25.04
2022-08-16T12:40:06.879Z,24.96
2022-08-16T12:41:25.067Z,25.09
2022-08-16T12:42:34.453Z,25.23
2022-08-16T12:43:37.180Z,25.26
2022-08-16T12:44:46.746Z,25.35
2022-08-16T12:45:51.189Z,25.41
2022-08-16T12:46:53.182Z,25.48
2022-08-16T12:48:16.020Z,25.63
2022-08-16T12:49:17.573Z,25.65
2022-08-16T12:50:24.214Z,25.82
2022-08-16T12:51:59.093Z,25.65
2022-08-16T12:52:59.087Z,25.50
2022-08-16T12:54:03.356Z,25.70
2022-08-16T12:55:05.952Z,25.62
2022-08-16T12:56:11.756Z,25.66
2022-08-16T12:57:14.094Z,25.72
2022-08-16T12:58:48.683Z,25.88
2022-08-16T12:59:37.786Z,25.94
2022-08-16T13:00:41.943Z,25.89
2022-08-16T13:01:43.777Z,25.88
2022-08-16T13:02:46.800Z,25.37
2022-08-16T13:03:50.231Z,25.65
2022-08-16T13:04:57.334Z,25.82
2022-08-16T13:05:59.335Z,25.71
2022-08-16T13:07:03.804Z,25.98
2022-08-16T13:08:05.303Z,25.90
2022-08-16T13:09:08.870Z,25.73
2022-08-16T13:10:21.352Z,25.73
2022-08-16T13:11:39.799Z,26.02
2022-08-16T13:12:52.094Z,26.01
2022-08-16T13:13:55.025Z,25.93
2022-08-16T13:14:56.608Z,26.05
2022-08-16T13:16:03.596Z,26.03
2022-08-16T13:17:09.524Z,26.00
2022-08-16T13:18:27.347Z,25.47
2022-08-16T13:20:03.802Z,25.24
2022-08-16T13:20:57.827Z,25.21
2022-08-16T13:21:59.487Z,25.58
2022-08-16T13:23:05.889Z,25.64
2022-08-16T13:24:07.441Z,25.57
2022-08-16T13:25:10.681Z,25.72
2022-08-16T13:26:12.265Z,25.75
2022-08-16T13:27:13.879Z,25.66
2022-08-16T13:28:17.107Z,25.64
2022-08-16T13:29:20.137Z,25.60
2022-08-16T13:30:37.552Z,25.67
2022-08-16T13:31:43.034Z,25.59
2022-08-16T13:32:44.554Z,25.69
2022-08-16T13:33:47.367Z,26.04
2022-08-16T13:34:50.199Z,26.32
2022-08-16T13:35:56.234Z,26.15
2022-08-16T13:36:59.123Z,25.87
2022-08-16T13:38:00.574Z,25.85
2022-08-16T13:39:03.915Z,25.61
2022-08-16T13:40:07.202Z,25.61
2022-08-16T13:41:11.091Z,25.81
2022-08-16T13:42:12.982Z,26.07
2022-08-16T13:43:14.782Z,25.85
2022-08-16T13:44:18.055Z,25.90
2022-08-16T13:45:20.245Z,26.24
2022-08-16T13:46:21.824Z,26.37
2022-08-16T13:47:23.327Z,26.39
2022-08-16T13:48:25.922Z,26.37
2022-08-16T13:49:27.853Z,26.00
2022-08-16T13:50:49.612Z,26.00
2022-08-16T13:51:53.434Z,25.98
2022-08-16T13:52:55.377Z,25.89
2022-08-16T13:54:03.249Z,25.99
2022-08-16T13:55:06.251Z,25.64
2022-08-16T13:56:22.044Z,25.72
2022-08-16T13:57:42.927Z,25.94
2022-08-16T13:58:54.544Z,26.18
2022-08-16T13:59:57.625Z,26.16
2022-08-16T14:01:00.279Z,25.95
2022-08-16T14:02:06.189Z,25.97
2022-08-16T14:03:08.032Z,26.29
2022-08-16T14:04:10.162Z,26.01
2022-08-16T14:05:22.082Z,25.91
2022-08-16T14:06:25.024Z,25.81
2022-08-16T14:07:26.606Z,25.63
2022-08-16T14:08:30.965Z,25.80
2022-08-16T14:09:33.398Z,25.78
2022-08-16T14:10:34.971Z,25.87
2022-08-16T14:11:36.467Z,26.24
2022-08-16T14:12:40.022Z,26.31
2022-08-16T14:13:42.755Z,26.11
2022-08-16T14:14:44.440Z,26.05
2022-08-16T14:15:45.927Z,25.96
2022-08-16T14:16:47.459Z,26.06
2022-08-16T14:18:15.434Z,26.06
2022-08-16T14:19:11.199Z,25.72
2022-08-16T14:20:19.131Z,25.89
2022-08-16T14:21:22.133Z,25.63
2022-08-16T14:22:30.864Z,25.88
2022-08-16T14:23:33.559Z,25.96
2022-08-16T14:24:35.137Z,25.72
2022-08-16T14:25:38.867Z,26.07
2022-08-16T14:26:43.526Z,26.20
2022-08-16T14:27:45.979Z,26.00
2022-08-16T14:28:48.663Z,26.05
2022-08-16T14:29:52.449Z,26.36
2022-08-16T14:30:54.051Z,26.25
2022-08-16T14:31:57.006Z,26.39